KHY157 VTBS-RPLL
Flight info
| Callsign | KHY157 |
|---|---|
| Flight time | N/A |
| Altitude | 35000 |
| Route | DOSBU1F DOSBU L880 VEMKO G474 ANINA/K0856F390 G474 PCA L628 MESOX/N0462F390 L628 ARESI/N0459F370 L628 DODUS W3 LUBAN LUBAN1D |
| Aircraft | A339/H-SADE1E2E3GHIJ3J5M1P2RWXY/LB2D1 |
Departure
| Time | 2026-05-08 00:57 |
|---|---|
| Airport | Suvarnabhumi Airport (VTBS) |
Arrival
| Time | N/A |
|---|---|
| Airport | Ninoy Aquino International Airport (RPLL) |
| Time | Latitude | Longitude | Altitude | Speed | Heading |
|---|---|---|---|---|---|
| 2026-05-08 00:56 | 13.71885 | 101.08696 | 24550 ft | 370 kts | 77° |
| 2026-05-08 00:57 | 13.72431 | 101.11245 | 25052 ft | 373 kts | 77° |
| 2026-05-08 00:57 | 13.72995 | 101.13876 | 25554 ft | 376 kts | 77° |
| 2026-05-08 00:57 | 13.73554 | 101.16489 | 26037 ft | 379 kts | 77° |
| 2026-05-08 00:57 | 13.74115 | 101.19112 | 26504 ft | 381 kts | 77° |
| 2026-05-08 00:58 | 13.74690 | 101.21802 | 26967 ft | 384 kts | 77° |
| 2026-05-08 00:58 | 13.75258 | 101.24460 | 27333 ft | 389 kts | 77° |
| 2026-05-08 00:58 | 13.75846 | 101.27212 | 27533 ft | 399 kts | 77° |
| 2026-05-08 00:58 | 13.76242 | 101.29069 | 27664 ft | 405 kts | 77° |
| 2026-05-08 00:59 | 13.76647 | 101.30969 | 27796 ft | 411 kts | 77° |
| 2026-05-08 00:59 | 13.77050 | 101.32857 | 27924 ft | 417 kts | 77° |
| 2026-05-08 00:59 | 13.78292 | 101.38689 | 28293 ft | 434 kts | 77° |
| 2026-05-08 01:00 | 13.80179 | 101.47568 | 28782 ft | 458 kts | 77° |
| 2026-05-08 01:00 | 13.80856 | 101.50752 | 28949 ft | 465 kts | 77° |
| 2026-05-08 01:00 | 13.81541 | 101.53981 | 29110 ft | 473 kts | 77° |
| 2026-05-08 01:01 | 13.82234 | 101.57243 | 29266 ft | 480 kts | 77° |
| 2026-05-08 01:01 | 13.82944 | 101.60593 | 29418 ft | 486 kts | 77° |
| 2026-05-08 01:01 | 13.83666 | 101.63994 | 29649 ft | 490 kts | 77° |
| 2026-05-08 01:01 | 13.84375 | 101.67333 | 30027 ft | 490 kts | 78° |
| 2026-05-08 01:02 | 13.85099 | 101.70746 | 30482 ft | 489 kts | 78° |
| 2026-05-08 01:02 | 13.85810 | 101.74103 | 30925 ft | 487 kts | 78° |
| 2026-05-08 01:02 | 13.86493 | 101.77467 | 31346 ft | 486 kts | 79° |
| 2026-05-08 01:02 | 13.87033 | 101.80834 | 31749 ft | 486 kts | 82° |
| 2026-05-08 01:03 | 13.87413 | 101.84224 | 32147 ft | 485 kts | 85° |
| 2026-05-08 01:03 | 13.87573 | 101.86462 | 32406 ft | 484 kts | 86° |
| 2026-05-08 01:03 | 13.87661 | 101.88708 | 32664 ft | 484 kts | 89° |